sensor_id;sensor_type;location;lat;lon;timestamp;temperature;humidity
70726;DHT22;58304;53.104;6.022;2023-05-07T00:00:16;13.40;99.90
70726;DHT22;58304;53.104;6.022;2023-05-07T00:02:46;13.40;99.90
70726;DHT22;58304;53.104;6.022;2023-05-07T00:05:14;13.40;99.90
70726;DHT22;58304;53.104;6.022;2023-05-07T00:07:40;13.40;99.90
70726;DHT22;58304;53.104;6.022;2023-05-07T00:10:06;13.40;99.90
70726;DHT22;58304;53.104;6.022;2023-05-07T00:12:32;13.40;99.90
70726;DHT22;58304;53.104;6.022;2023-05-07T00:15:02;13.30;99.90
70726;DHT22;58304;53.104;6.022;2023-05-07T00:17:29;13.30;99.90
70726;DHT22;58304;53.104;6.022;2023-05-07T00:19:55;13.40;99.90
70726;DHT22;58304;53.104;6.022;2023-05-07T00:22:22;13.30;99.90
70726;DHT22;58304;53.104;6.022;2023-05-07T00:24:54;13.20;99.90
70726;DHT22;58304;53.104;6.022;2023-05-07T00:27:30;13.20;99.90
70726;DHT22;58304;53.104;6.022;2023-05-07T00:29:57;13.20;99.90
70726;DHT22;58304;53.104;6.022;2023-05-07T00:32:31;13.20;99.90
70726;DHT22;58304;53.104;6.022;2023-05-07T00:34:57;13.20;99.90
70726;DHT22;58304;53.104;6.022;2023-05-07T00:37:24;13.10;99.90
70726;DHT22;58304;53.104;6.022;2023-05-07T00:39:50;13.10;99.90
70726;DHT22;58304;53.104;6.022;2023-05-07T00:42:16;13.10;99.90
70726;DHT22;58304;53.104;6.022;2023-05-07T00:44:46;13.10;99.90
70726;DHT22;58304;53.104;6.022;2023-05-07T00:47:15;13.10;99.90
70726;DHT22;58304;53.104;6.022;2023-05-07T00:49:46;13.10;99.90
70726;DHT22;58304;53.104;6.022;2023-05-07T00:52:14;13.10;99.90
70726;DHT22;58304;53.104;6.022;2023-05-07T00:54:42;13.00;99.90
70726;DHT22;58304;53.104;6.022;2023-05-07T00:57:10;12.90;99.90
70726;DHT22;58304;53.104;6.022;2023-05-07T00:59:40;13.00;99.90
70726;DHT22;58304;53.104;6.022;2023-05-07T01:02:06;13.00;99.90
70726;DHT22;58304;53.104;6.022;2023-05-07T01:04:33;13.00;99.90
70726;DHT22;58304;53.104;6.022;2023-05-07T01:06:59;13.00;99.90
70726;DHT22;58304;53.104;6.022;2023-05-07T01:09:28;13.00;99.90
70726;DHT22;58304;53.104;6.022;2023-05-07T01:12:00;12.90;99.90
70726;DHT22;58304;53.104;6.022;2023-05-07T01:14:26;13.00;99.90
70726;DHT22;58304;53.104;6.022;2023-05-07T01:16:53;13.00;99.90
70726;DHT22;58304;53.104;6.022;2023-05-07T01:19:19;13.00;99.90
70726;DHT22;58304;53.104;6.022;2023-05-07T01:21:47;12.90;99.90
70726;DHT22;58304;53.104;6.022;2023-05-07T01:24:15;12.90;99.90
70726;DHT22;58304;53.104;6.022;2023-05-07T01:26:43;12.90;99.90
70726;DHT22;58304;53.104;6.022;2023-05-07T01:29:09;12.90;99.90
70726;DHT22;58304;53.104;6.022;2023-05-07T01:31:37;12.90;99.90
70726;DHT22;58304;53.104;6.022;2023-05-07T01:34:07;12.80;99.90
70726;DHT22;58304;53.104;6.022;2023-05-07T01:36:34;12.80;99.90
70726;DHT22;58304;53.104;6.022;2023-05-07T01:39:02;12.80;99.90
70726;DHT22;58304;53.104;6.022;2023-05-07T01:41:29;12.80;99.90
70726;DHT22;58304;53.104;6.022;2023-05-07T01:44:00;12.80;99.90
70726;DHT22;58304;53.104;6.022;2023-05-07T01:46:27;12.80;99.90
70726;DHT22;58304;53.104;6.022;2023-05-07T01:49:08;12.80;99.90
70726;DHT22;58304;53.104;6.022;2023-05-07T01:51:34;12.80;99.90
70726;DHT22;58304;53.104;6.022;2023-05-07T01:54:01;12.80;99.90
70726;DHT22;58304;53.104;6.022;2023-05-07T01:56:26;12.80;99.90
70726;DHT22;58304;53.104;6.022;2023-05-07T01:58:53;12.80;99.90
70726;DHT22;58304;53.104;6.022;2023-05-07T02:01:20;12.70;99.90
70726;DHT22;58304;53.104;6.022;2023-05-07T02:03:46;12.70;99.90
70726;DHT22;58304;53.104;6.022;2023-05-07T02:06:12;12.70;99.90
70726;DHT22;58304;53.104;6.022;2023-05-07T02:08:37;12.70;99.90
70726;DHT22;58304;53.104;6.022;2023-05-07T02:11:03;12.70;99.90
70726;DHT22;58304;53.104;6.022;2023-05-07T02:13:31;12.70;99.90
70726;DHT22;58304;53.104;6.022;2023-05-07T02:15:57;12.70;99.90
70726;DHT22;58304;53.104;6.022;2023-05-07T02:18:25;12.60;99.90
70726;DHT22;58304;53.104;6.022;2023-05-07T02:20:51;12.60;99.90
70726;DHT22;58304;53.104;6.022;2023-05-07T02:23:17;12.50;99.90
70726;DHT22;58304;53.104;6.022;2023-05-07T02:25:43;12.50;99.90
70726;DHT22;58304;53.104;6.022;2023-05-07T02:28:08;12.50;99.90
70726;DHT22;58304;53.104;6.022;2023-05-07T02:30:34;12.50;99.90
70726;DHT22;58304;53.104;6.022;2023-05-07T02:33:00;12.40;99.90
70726;DHT22;58304;53.104;6.022;2023-05-07T02:35:26;12.40;99.90
70726;DHT22;58304;53.104;6.022;2023-05-07T02:37:54;12.40;99.90
70726;DHT22;58304;53.104;6.022;2023-05-07T02:40:21;12.40;99.90
70726;DHT22;58304;53.104;6.022;2023-05-07T02:42:47;12.40;99.90
70726;DHT22;58304;53.104;6.022;2023-05-07T02:45:13;12.40;99.90
70726;DHT22;58304;53.104;6.022;2023-05-07T02:47:44;12.30;99.90
70726;DHT22;58304;53.104;6.022;2023-05-07T02:50:10;12.30;99.90
70726;DHT22;58304;53.104;6.022;2023-05-07T02:52:36;12.30;99.90
70726;DHT22;58304;53.104;6.022;2023-05-07T02:55:03;12.20;99.90
70726;DHT22;58304;53.104;6.022;2023-05-07T02:57:30;12.30;99.90
70726;DHT22;58304;53.104;6.022;2023-05-07T02:59:58;12.20;99.90
70726;DHT22;58304;53.104;6.022;2023-05-07T03:02:25;12.30;99.90
70726;DHT22;58304;53.104;6.022;2023-05-07T03:04:52;12.20;99.90
70726;DHT22;58304;53.104;6.022;2023-05-07T03:07:21;12.10;99.90
70726;DHT22;58304;53.104;6.022;2023-05-07T03:09:47;12.10;99.90
70726;DHT22;58304;53.104;6.022;2023-05-07T03:12:13;12.10;99.90
70726;DHT22;58304;53.104;6.022;2023-05-07T03:14:44;12.00;99.90
70726;DHT22;58304;53.104;6.022;2023-05-07T03:17:10;12.00;99.90
70726;DHT22;58304;53.104;6.022;2023-05-07T03:19:37;11.90;99.90
70726;DHT22;58304;53.104;6.022;2023-05-07T03:22:06;11.90;99.90
70726;DHT22;58304;53.104;6.022;2023-05-07T03:24:32;11.90;99.90
70726;DHT22;58304;53.104;6.022;2023-05-07T03:26:58;11.90;99.90
70726;DHT22;58304;53.104;6.022;2023-05-07T03:29:24;11.90;99.90
70726;DHT22;58304;53.104;6.022;2023-05-07T03:34:25;11.90;99.90
70726;DHT22;58304;53.104;6.022;2023-05-07T03:36:52;11.80;99.90
70726;DHT22;58304;53.104;6.022;2023-05-07T03:39:18;11.80;99.90
70726;DHT22;58304;53.104;6.022;2023-05-07T03:41:43;11.80;99.90
70726;DHT22;58304;53.104;6.022;2023-05-07T03:44:09;11.70;99.90
70726;DHT22;58304;53.104;6.022;2023-05-07T03:46:35;11.70;99.90
70726;DHT22;58304;53.104;6.022;2023-05-07T03:49:00;11.70;99.90
70726;DHT22;58304;53.104;6.022;2023-05-07T03:51:27;11.70;99.90
70726;DHT22;58304;53.104;6.022;2023-05-07T03:53:53;11.60;99.90
70726;DHT22;58304;53.104;6.022;2023-05-07T03:56:20;11.70;99.90
70726;DHT22;58304;53.104;6.022;2023-05-07T03:58:47;11.60;99.90
70726;DHT22;58304;53.104;6.022;2023-05-07T04:01:14;11.60;99.90
70726;DHT22;58304;53.104;6.022;2023-05-07T04:03:40;11.60;99.90
70726;DHT22;58304;53.104;6.022;2023-05-07T04:06:08;11.60;99.90
70726;DHT22;58304;53.104;6.022;2023-05-07T04:08:34;11.60;99.90
70726;DHT22;58304;53.104;6.022;2023-05-07T04:11:00;11.60;99.90
70726;DHT22;58304;53.104;6.022;2023-05-07T04:13:25;11.60;99.90
70726;DHT22;58304;53.104;6.022;2023-05-07T04:15:52;11.60;99.90
70726;DHT22;58304;53.104;6.022;2023-05-07T04:18:18;11.60;99.90
70726;DHT22;58304;53.104;6.022;2023-05-07T04:20:44;11.60;99.90
70726;DHT22;58304;53.104;6.022;2023-05-07T04:23:10;11.50;99.90
70726;DHT22;58304;53.104;6.022;2023-05-07T04:25:37;11.50;99.90
70726;DHT22;58304;53.104;6.022;2023-05-07T04:28:02;11.50;99.90
70726;DHT22;58304;53.104;6.022;2023-05-07T04:30:30;11.50;99.90
70726;DHT22;58304;53.104;6.022;2023-05-07T04:32:56;11.50;99.90
70726;DHT22;58304;53.104;6.022;2023-05-07T04:35:23;11.50;99.90
70726;DHT22;58304;53.104;6.022;2023-05-07T04:37:50;11.50;99.90
70726;DHT22;58304;53.104;6.022;2023-05-07T04:40:17;11.50;99.90
70726;DHT22;58304;53.104;6.022;2023-05-07T04:42:44;11.50;99.90
70726;DHT22;58304;53.104;6.022;2023-05-07T04:45:10;11.50;99.90
70726;DHT22;58304;53.104;6.022;2023-05-07T04:47:38;11.50;99.90
70726;DHT22;58304;53.104;6.022;2023-05-07T04:50:06;11.50;99.90
70726;DHT22;58304;53.104;6.022;2023-05-07T04:52:33;11.40;99.90
70726;DHT22;58304;53.104;6.022;2023-05-07T04:55:09;11.40;99.90
70726;DHT22;58304;53.104;6.022;2023-05-07T04:57:45;11.40;99.90
70726;DHT22;58304;53.104;6.022;2023-05-07T05:00:11;11.40;99.90
70726;DHT22;58304;53.104;6.022;2023-05-07T05:02:39;11.50;99.90
70726;DHT22;58304;53.104;6.022;2023-05-07T05:05:06;11.50;99.90
70726;DHT22;58304;53.104;6.022;2023-05-07T05:07:32;11.50;99.90
70726;DHT22;58304;53.104;6.022;2023-05-07T05:09:57;11.50;99.90
70726;DHT22;58304;53.104;6.022;2023-05-07T05:12:25;11.60;99.90
70726;DHT22;58304;53.104;6.022;2023-05-07T05:14:52;11.50;99.90
70726;DHT22;58304;53.104;6.022;2023-05-07T05:17:19;11.50;99.90
70726;DHT22;58304;53.104;6.022;2023-05-07T05:19:46;11.50;99.90
70726;DHT22;58304;53.104;6.022;2023-05-07T05:22:13;11.40;99.90
70726;DHT22;58304;53.104;6.022;2023-05-07T05:24:39;11.40;99.90
70726;DHT22;58304;53.104;6.022;2023-05-07T05:27:06;11.40;99.90
70726;DHT22;58304;53.104;6.022;2023-05-07T05:29:31;11.50;99.90
70726;DHT22;58304;53.104;6.022;2023-05-07T05:32:00;11.50;99.90
70726;DHT22;58304;53.104;6.022;2023-05-07T05:34:25;11.50;99.90
70726;DHT22;58304;53.104;6.022;2023-05-07T05:36:51;11.50;99.90
70726;DHT22;58304;53.104;6.022;2023-05-07T05:39:17;11.50;99.90
70726;DHT22;58304;53.104;6.022;2023-05-07T05:41:42;11.60;99.90
70726;DHT22;58304;53.104;6.022;2023-05-07T05:44:09;11.60;99.90
70726;DHT22;58304;53.104;6.022;2023-05-07T05:46:35;11.60;99.90
70726;DHT22;58304;53.104;6.022;2023-05-07T05:49:05;11.70;99.90
70726;DHT22;58304;53.104;6.022;2023-05-07T05:51:31;11.60;99.90
70726;DHT22;58304;53.104;6.022;2023-05-07T05:53:57;11.70;99.90
70726;DHT22;58304;53.104;6.022;2023-05-07T05:56:26;11.70;99.90
70726;DHT22;58304;53.104;6.022;2023-05-07T05:59:15;11.80;99.90
70726;DHT22;58304;53.104;6.022;2023-05-07T06:01:41;11.80;99.90
70726;DHT22;58304;53.104;6.022;2023-05-07T06:04:07;11.80;99.90
70726;DHT22;58304;53.104;6.022;2023-05-07T06:06:33;11.80;99.90
70726;DHT22;58304;53.104;6.022;2023-05-07T06:09:07;11.90;99.90
70726;DHT22;58304;53.104;6.022;2023-05-07T06:11:33;11.90;99.90
70726;DHT22;58304;53.104;6.022;2023-05-07T06:13:59;12.00;99.90
70726;DHT22;58304;53.104;6.022;2023-05-07T06:16:31;12.00;99.90
70726;DHT22;58304;53.104;6.022;2023-05-07T06:18:57;12.00;99.90
70726;DHT22;58304;53.104;6.022;2023-05-07T06:21:23;12.10;99.90
70726;DHT22;58304;53.104;6.022;2023-05-07T06:23:49;12.20;99.90
70726;DHT22;58304;53.104;6.022;2023-05-07T06:26:15;12.20;99.90
70726;DHT22;58304;53.104;6.022;2023-05-07T06:28:41;12.20;99.90
70726;DHT22;58304;53.104;6.022;2023-05-07T06:31:30;12.20;99.90
70726;DHT22;58304;53.104;6.022;2023-05-07T06:33:59;12.20;99.90
70726;DHT22;58304;53.104;6.022;2023-05-07T06:36:24;12.20;99.90
70726;DHT22;58304;53.104;6.022;2023-05-07T06:38:50;12.20;99.90
70726;DHT22;58304;53.104;6.022;2023-05-07T06:41:18;12.20;99.90
70726;DHT22;58304;53.104;6.022;2023-05-07T06:43:47;12.20;99.90
70726;DHT22;58304;53.104;6.022;2023-05-07T06:46:12;12.30;99.90
70726;DHT22;58304;53.104;6.022;2023-05-07T06:48:41;12.30;99.90
70726;DHT22;58304;53.104;6.022;2023-05-07T06:51:10;12.30;99.90
70726;DHT22;58304;53.104;6.022;2023-05-07T06:53:36;12.50;99.90
70726;DHT22;58304;53.104;6.022;2023-05-07T06:56:07;12.60;99.90
70726;DHT22;58304;53.104;6.022;2023-05-07T06:58:32;12.70;99.90
70726;DHT22;58304;53.104;6.022;2023-05-07T07:01:01;12.80;99.90
70726;DHT22;58304;53.104;6.022;2023-05-07T07:03:36;12.80;99.90
70726;DHT22;58304;53.104;6.022;2023-05-07T07:06:02;12.80;99.90
70726;DHT22;58304;53.104;6.022;2023-05-07T07:08:29;13.00;99.90
70726;DHT22;58304;53.104;6.022;2023-05-07T07:10:55;12.90;99.90
70726;DHT22;58304;53.104;6.022;2023-05-07T07:13:24;12.90;99.90
70726;DHT22;58304;53.104;6.022;2023-05-07T07:15:51;12.90;99.90
70726;DHT22;58304;53.104;6.022;2023-05-07T07:18:18;13.00;99.90
70726;DHT22;58304;53.104;6.022;2023-05-07T07:20:56;12.90;99.90
70726;DHT22;58304;53.104;6.022;2023-05-07T07:23:22;13.00;99.90
70726;DHT22;58304;53.104;6.022;2023-05-07T07:25:47;13.00;99.90
70726;DHT22;58304;53.104;6.022;2023-05-07T07:28:17;13.10;99.90
70726;DHT22;58304;53.104;6.022;2023-05-07T07:30:44;13.10;99.90
70726;DHT22;58304;53.104;6.022;2023-05-07T07:33:12;13.20;99.90
70726;DHT22;58304;53.104;6.022;2023-05-07T07:35:37;13.10;99.90
70726;DHT22;58304;53.104;6.022;2023-05-07T07:38:03;13.10;99.90
70726;DHT22;58304;53.104;6.022;2023-05-07T07:40:36;13.20;99.90
70726;DHT22;58304;53.104;6.022;2023-05-07T07:43:02;13.10;99.90
70726;DHT22;58304;53.104;6.022;2023-05-07T07:45:27;13.20;99.90
70726;DHT22;58304;53.104;6.022;2023-05-07T07:47:54;13.30;99.90
70726;DHT22;58304;53.104;6.022;2023-05-07T07:50:20;13.40;99.90
70726;DHT22;58304;53.104;6.022;2023-05-07T07:52:47;13.50;99.90
70726;DHT22;58304;53.104;6.022;2023-05-07T07:55:13;13.70;99.90
70726;DHT22;58304;53.104;6.022;2023-05-07T07:57:42;13.70;99.90
70726;DHT22;58304;53.104;6.022;2023-05-07T08:00:08;13.90;99.90
70726;DHT22;58304;53.104;6.022;2023-05-07T08:02:34;14.10;99.90
70726;DHT22;58304;53.104;6.022;2023-05-07T08:07:56;14.50;99.90
70726;DHT22;58304;53.104;6.022;2023-05-07T08:10:25;14.70;99.90
70726;DHT22;58304;53.104;6.022;2023-05-07T08:12:51;14.80;99.90
70726;DHT22;58304;53.104;6.022;2023-05-07T08:21:38;15.00;99.90
70726;DHT22;58304;53.104;6.022;2023-05-07T08:27:41;15.10;99.90
70726;DHT22;58304;53.104;6.022;2023-05-07T08:30:10;15.30;99.90
70726;DHT22;58304;53.104;6.022;2023-05-07T08:32:48;15.60;99.90
70726;DHT22;58304;53.104;6.022;2023-05-07T08:35:20;16.00;99.90
70726;DHT22;58304;53.104;6.022;2023-05-07T08:37:46;16.00;99.90
70726;DHT22;58304;53.104;6.022;2023-05-07T08:40:12;16.00;99.90
70726;DHT22;58304;53.104;6.022;2023-05-07T08:42:40;15.50;99.90
70726;DHT22;58304;53.104;6.022;2023-05-07T08:45:38;15.40;99.90
70726;DHT22;58304;53.104;6.022;2023-05-07T08:48:09;15.70;99.90
70726;DHT22;58304;53.104;6.022;2023-05-07T08:50:35;15.70;99.90
70726;DHT22;58304;53.104;6.022;2023-05-07T08:53:05;15.70;99.90
70726;DHT22;58304;53.104;6.022;2023-05-07T08:55:37;15.80;99.90
70726;DHT22;58304;53.104;6.022;2023-05-07T08:58:05;15.70;99.90
70726;DHT22;58304;53.104;6.022;2023-05-07T09:00:32;16.00;99.90
70726;DHT22;58304;53.104;6.022;2023-05-07T09:08:27;16.10;99.90
70726;DHT22;58304;53.104;6.022;2023-05-07T09:10:58;16.30;99.90
70726;DHT22;58304;53.104;6.022;2023-05-07T09:13:27;16.60;99.90
70726;DHT22;58304;53.104;6.022;2023-05-07T09:15:53;16.70;99.90
70726;DHT22;58304;53.104;6.022;2023-05-07T09:18:19;16.60;99.90
70726;DHT22;58304;53.104;6.022;2023-05-07T09:20:48;17.00;99.90
70726;DHT22;58304;53.104;6.022;2023-05-07T09:23:16;17.50;99.90
70726;DHT22;58304;53.104;6.022;2023-05-07T09:25:42;17.50;99.90
70726;DHT22;58304;53.104;6.022;2023-05-07T09:28:08;18.20;99.90
70726;DHT22;58304;53.104;6.022;2023-05-07T09:30:37;19.10;99.90
70726;DHT22;58304;53.104;6.022;2023-05-07T09:33:03;19.20;99.90
70726;DHT22;58304;53.104;6.022;2023-05-07T09:35:32;19.10;99.90
70726;DHT22;58304;53.104;6.022;2023-05-07T09:38:01;19.60;99.90
70726;DHT22;58304;53.104;6.022;2023-05-07T09:40:29;19.80;99.90
70726;DHT22;58304;53.104;6.022;2023-05-07T09:42:55;19.50;99.90
70726;DHT22;58304;53.104;6.022;2023-05-07T09:45:32;19.90;99.90
70726;DHT22;58304;53.104;6.022;2023-05-07T09:48:15;20.10;99.90
70726;DHT22;58304;53.104;6.022;2023-05-07T09:50:51;20.40;99.90
70726;DHT22;58304;53.104;6.022;2023-05-07T09:53:33;20.90;99.90
70726;DHT22;58304;53.104;6.022;2023-05-07T09:55:59;20.80;99.90
70726;DHT22;58304;53.104;6.022;2023-05-07T09:58:26;20.30;99.90
70726;DHT22;58304;53.104;6.022;2023-05-07T10:00:56;19.90;99.90
70726;DHT22;58304;53.104;6.022;2023-05-07T10:03:35;20.00;99.90
70726;DHT22;58304;53.104;6.022;2023-05-07T10:06:05;20.00;99.90
70726;DHT22;58304;53.104;6.022;2023-05-07T10:08:35;19.00;99.90
70726;DHT22;58304;53.104;6.022;2023-05-07T10:11:04;18.60;99.90
70726;DHT22;58304;53.104;6.022;2023-05-07T10:13:34;18.50;99.90
70726;DHT22;58304;53.104;6.022;2023-05-07T10:16:13;18.60;99.90
70726;DHT22;58304;53.104;6.022;2023-05-07T10:18:45;18.90;99.90
70726;DHT22;58304;53.104;6.022;2023-05-07T10:21:21;19.40;99.90
70726;DHT22;58304;53.104;6.022;2023-05-07T10:24:01;19.90;99.90
70726;DHT22;58304;53.104;6.022;2023-05-07T10:26:32;20.10;99.90
70726;DHT22;58304;53.104;6.022;2023-05-07T10:29:20;20.60;99.90
70726;DHT22;58304;53.104;6.022;2023-05-07T10:40:20;21.30;99.90
70726;DHT22;58304;53.104;6.022;2023-05-07T10:43:06;21.00;99.90
70726;DHT22;58304;53.104;6.022;2023-05-07T11:04:15;22.20;99.90
70726;DHT22;58304;53.104;6.022;2023-05-07T11:07:23;22.40;99.90
70726;DHT22;58304;53.104;6.022;2023-05-07T11:10:26;22.50;99.90
70726;DHT22;58304;53.104;6.022;2023-05-07T11:13:14;22.90;99.90
70726;DHT22;58304;53.104;6.022;2023-05-07T11:16:18;22.80;99.90
70726;DHT22;58304;53.104;6.022;2023-05-07T11:25:40;22.50;99.90
70726;DHT22;58304;53.104;6.022;2023-05-07T11:28:54;22.90;99.90
70726;DHT22;58304;53.104;6.022;2023-05-07T11:31:42;23.10;99.90
70726;DHT22;58304;53.104;6.022;2023-05-07T11:45:50;22.50;99.90
70726;DHT22;58304;53.104;6.022;2023-05-07T11:51:30;22.30;99.90
70726;DHT22;58304;53.104;6.022;2023-05-07T12:09:04;22.20;99.90
70726;DHT22;58304;53.104;6.022;2023-05-07T12:12:18;22.20;99.90
70726;DHT22;58304;53.104;6.022;2023-05-07T12:14:48;21.90;99.90
70726;DHT22;58304;53.104;6.022;2023-05-07T12:17:28;21.80;99.90
70726;DHT22;58304;53.104;6.022;2023-05-07T12:20:12;21.50;99.90
70726;DHT22;58304;53.104;6.022;2023-05-07T12:22:38;22.10;99.90
70726;DHT22;58304;53.104;6.022;2023-05-07T12:25:30;22.40;99.90
70726;DHT22;58304;53.104;6.022;2023-05-07T12:30:51;22.50;99.90
70726;DHT22;58304;53.104;6.022;2023-05-07T12:33:27;23.00;99.90
70726;DHT22;58304;53.104;6.022;2023-05-07T12:35:57;23.50;99.90
70726;DHT22;58304;53.104;6.022;2023-05-07T12:38:46;23.30;99.90
70726;DHT22;58304;53.104;6.022;2023-05-07T12:42:20;23.10;99.90
70726;DHT22;58304;53.104;6.022;2023-05-07T13:15:37;22.80;99.90
70726;DHT22;58304;53.104;6.022;2023-05-07T13:21:47;23.20;99.90
70726;DHT22;58304;53.104;6.022;2023-05-07T13:24:12;23.50;99.90
70726;DHT22;58304;53.104;6.022;2023-05-07T13:26:38;24.20;99.90
70726;DHT22;58304;53.104;6.022;2023-05-07T13:29:04;24.60;99.90
70726;DHT22;58304;53.104;6.022;2023-05-07T13:31:30;24.30;99.90
70726;DHT22;58304;53.104;6.022;2023-05-07T13:36:34;24.90;99.90
70726;DHT22;58304;53.104;6.022;2023-05-07T13:39:03;24.90;99.90
70726;DHT22;58304;53.104;6.022;2023-05-07T13:41:29;24.80;99.90
70726;DHT22;58304;53.104;6.022;2023-05-07T13:43:55;24.50;99.90
70726;DHT22;58304;53.104;6.022;2023-05-07T13:46:21;24.00;99.90
70726;DHT22;58304;53.104;6.022;2023-05-07T13:48:47;23.50;99.90
70726;DHT22;58304;53.104;6.022;2023-05-07T13:51:13;23.60;99.90
70726;DHT22;58304;53.104;6.022;2023-05-07T13:53:38;23.80;99.90
70726;DHT22;58304;53.104;6.022;2023-05-07T13:56:04;23.70;99.90
70726;DHT22;58304;53.104;6.022;2023-05-07T13:58:30;23.70;99.90
70726;DHT22;58304;53.104;6.022;2023-05-07T14:00:56;24.00;99.90
70726;DHT22;58304;53.104;6.022;2023-05-07T14:03:22;24.30;99.90
70726;DHT22;58304;53.104;6.022;2023-05-07T14:05:59;24.10;99.90
70726;DHT22;58304;53.104;6.022;2023-05-07T14:08:25;23.70;99.90
70726;DHT22;58304;53.104;6.022;2023-05-07T14:10:51;23.20;99.90
70726;DHT22;58304;53.104;6.022;2023-05-07T14:13:17;22.90;99.90
70726;DHT22;58304;53.104;6.022;2023-05-07T14:15:43;23.20;99.90
70726;DHT22;58304;53.104;6.022;2023-05-07T14:18:12;23.40;99.90
70726;DHT22;58304;53.104;6.022;2023-05-07T14:20:38;23.40;99.90
70726;DHT22;58304;53.104;6.022;2023-05-07T14:23:04;23.60;99.90
70726;DHT22;58304;53.104;6.022;2023-05-07T14:25:30;23.90;99.90
70726;DHT22;58304;53.104;6.022;2023-05-07T14:27:55;24.00;99.90
70726;DHT22;58304;53.104;6.022;2023-05-07T14:30:21;24.30;99.90
70726;DHT22;58304;53.104;6.022;2023-05-07T14:32:50;24.20;99.90
70726;DHT22;58304;53.104;6.022;2023-05-07T14:35:16;24.40;99.90
70726;DHT22;58304;53.104;6.022;2023-05-07T14:37:43;24.70;99.90
70726;DHT22;58304;53.104;6.022;2023-05-07T14:40:09;24.20;99.90
70726;DHT22;58304;53.104;6.022;2023-05-07T14:42:37;24.20;99.90
70726;DHT22;58304;53.104;6.022;2023-05-07T14:45:03;24.50;99.90
70726;DHT22;58304;53.104;6.022;2023-05-07T14:47:30;24.70;99.90
70726;DHT22;58304;53.104;6.022;2023-05-07T14:49:55;24.60;99.90
70726;DHT22;58304;53.104;6.022;2023-05-07T14:52:22;24.60;99.90
70726;DHT22;58304;53.104;6.022;2023-05-07T14:54:48;24.20;99.90
70726;DHT22;58304;53.104;6.022;2023-05-07T14:57:14;23.80;99.90
70726;DHT22;58304;53.104;6.022;2023-05-07T14:59:44;23.60;99.90
70726;DHT22;58304;53.104;6.022;2023-05-07T15:02:12;23.60;99.90
70726;DHT22;58304;53.104;6.022;2023-05-07T15:04:38;23.50;99.90
70726;DHT22;58304;53.104;6.022;2023-05-07T15:07:12;23.40;99.90
70726;DHT22;58304;53.104;6.022;2023-05-07T15:09:43;23.40;99.90
70726;DHT22;58304;53.104;6.022;2023-05-07T15:12:09;23.20;99.90
70726;DHT22;58304;53.104;6.022;2023-05-07T15:14:41;23.10;99.90
70726;DHT22;58304;53.104;6.022;2023-05-07T15:17:08;23.10;99.90
70726;DHT22;58304;53.104;6.022;2023-05-07T15:19:34;23.10;99.90
70726;DHT22;58304;53.104;6.022;2023-05-07T15:22:03;22.90;99.90
70726;DHT22;58304;53.104;6.022;2023-05-07T15:24:29;22.80;99.90
70726;DHT22;58304;53.104;6.022;2023-05-07T15:26:55;22.70;99.90
70726;DHT22;58304;53.104;6.022;2023-05-07T15:29:21;22.70;99.90
70726;DHT22;58304;53.104;6.022;2023-05-07T15:31:49;22.50;99.90
70726;DHT22;58304;53.104;6.022;2023-05-07T15:34:41;22.40;99.90
70726;DHT22;58304;53.104;6.022;2023-05-07T15:37:42;22.30;99.90
70726;DHT22;58304;53.104;6.022;2023-05-07T15:44:18;22.00;99.90
70726;DHT22;58304;53.104;6.022;2023-05-07T16:00:55;21.50;99.90
70726;DHT22;58304;53.104;6.022;2023-05-07T16:03:37;21.40;99.90
70726;DHT22;58304;53.104;6.022;2023-05-07T16:12:31;21.60;99.90
70726;DHT22;58304;53.104;6.022;2023-05-07T17:28:14;19.00;99.90
70726;DHT22;58304;53.104;6.022;2023-05-07T17:31:41;19.00;99.90
70726;DHT22;58304;53.104;6.022;2023-05-07T17:34:10;18.80;99.90
70726;DHT22;58304;53.104;6.022;2023-05-07T17:36:40;18.70;99.90
70726;DHT22;58304;53.104;6.022;2023-05-07T17:45:12;18.60;99.90
70726;DHT22;58304;53.104;6.022;2023-05-07T17:47:41;18.50;99.90
70726;DHT22;58304;53.104;6.022;2023-05-07T17:50:37;18.50;99.90
70726;DHT22;58304;53.104;6.022;2023-05-07T20:31:55;15.10;99.90
70726;DHT22;58304;53.104;6.022;2023-05-07T20:34:30;15.00;99.90
70726;DHT22;58304;53.104;6.022;2023-05-07T20:40:46;15.00;99.90
70726;DHT22;58304;53.104;6.022;2023-05-07T20:43:58;14.90;99.90
70726;DHT22;58304;53.104;6.022;2023-05-07T20:46:35;14.80;99.90
70726;DHT22;58304;53.104;6.022;2023-05-07T20:49:11;14.80;99.90
70726;DHT22;58304;53.104;6.022;2023-05-07T21:38:56;13.90;99.90
70726;DHT22;58304;53.104;6.022;2023-05-07T21:42:02;13.90;99.90
70726;DHT22;58304;53.104;6.022;2023-05-07T21:51:10;13.70;99.90
70726;DHT22;58304;53.104;6.022;2023-05-07T21:57:38;13.60;99.90
70726;DHT22;58304;53.104;6.022;2023-05-07T22:00:15;13.60;99.90
70726;DHT22;58304;53.104;6.022;2023-05-07T22:02:48;13.60;99.90
70726;DHT22;58304;53.104;6.022;2023-05-07T22:09:25;13.50;99.90
70726;DHT22;58304;53.104;6.022;2023-05-07T22:15:05;13.50;99.90
70726;DHT22;58304;53.104;6.022;2023-05-07T22:17:39;13.40;99.90
70726;DHT22;58304;53.104;6.022;2023-05-07T22:20:29;13.40;99.90
70726;DHT22;58304;53.104;6.022;2023-05-07T22:22:58;13.40;99.90
